Time;durP1;ratioP1;P1;durP2;ratioP2;P2;SDS_P1;SDS_P2;PMS_P1;PMS_P2;Temp;Humidity;BMP_temperature;BMP_pressure;BME280_temperature;BME280_humidity;BME280_pressure;Samples;Min_cycle;Max_cycle;Signal;HPM_P1;HPM_P2
2022/08/27 00:02:00;;;;;;;0.10;0.10;;;16.60;99.90;;;;;;5005843;28;20054;-70
2022/08/27 00:04:26;;;;;;;0.00;0.00;;;16.60;99.90;;;;;;5008622;28;20425;-70
2022/08/27 00:06:52;;;;;;;0.28;0.28;;;16.60;99.90;;;;;;4991546;28;20072;-69
2022/08/27 00:09:18;;;;;;;0.20;0.20;;;16.60;99.90;;;;;;4994310;28;20073;-69
2022/08/27 00:11:45;;;;;;;3.35;0.45;;;16.50;99.90;;;;;;5000297;28;20116;-69
2022/08/27 00:14:11;;;;;;;1.85;0.80;;;16.50;99.90;;;;;;5007923;28;20289;-69
2022/08/27 00:16:37;;;;;;;0.10;0.10;;;16.50;99.90;;;;;;5009798;28;20057;-69
2022/08/27 00:19:03;;;;;;;0.38;0.38;;;16.40;99.90;;;;;;4999434;28;20371;-69
2022/08/27 00:21:29;;;;;;;0.35;0.32;;;16.40;99.90;;;;;;4991027;28;20096;-69
2022/08/27 00:23:54;;;;;;;0.17;0.17;;;16.40;99.90;;;;;;4998035;28;20053;-69
2022/08/27 00:26:20;;;;;;;0.10;0.10;;;16.30;99.90;;;;;;5007712;28;20050;-70
2022/08/27 00:28:46;;;;;;;0.10;0.10;;;16.30;99.90;;;;;;4990964;28;20078;-70
2022/08/27 00:31:13;;;;;;;0.90;0.75;;;16.30;99.90;;;;;;4991290;28;20068;-69
2022/08/27 00:33:39;;;;;;;1.20;1.10;;;16.20;99.90;;;;;;4991589;28;20038;-70
2022/08/27 00:36:07;;;;;;;0.20;0.20;;;16.30;99.90;;;;;;4990588;28;20059;-69
2022/08/27 00:38:33;;;;;;;0.20;0.20;;;16.30;99.90;;;;;;4991799;28;20087;-69
2022/08/27 00:41:00;;;;;;;0.65;0.65;;;16.20;99.90;;;;;;5001618;28;20509;-70
2022/08/27 00:43:29;;;;;;;0.00;0.00;;;16.30;99.90;;;;;;4990400;28;20456;-69
2022/08/27 00:46:06;;;;;;;0.10;0.10;;;16.30;99.90;;;;;;4988885;28;20479;-69
2022/08/27 00:48:34;;;;;;;0.40;0.40;;;16.30;99.90;;;;;;4991807;28;20121;-69
2022/08/27 00:51:01;;;;;;;0.68;0.43;;;16.40;99.90;;;;;;4989175;28;20054;-70
2022/08/27 00:53:32;;;;;;;0.10;0.10;;;16.40;99.90;;;;;;5003027;28;20613;-70
2022/08/27 00:56:07;;;;;;;0.28;0.25;;;16.50;99.90;;;;;;5008002;28;20401;-69
2022/08/27 00:58:36;;;;;;;19.55;1.02;;;16.60;99.90;;;;;;4994718;28;20088;-69
2022/08/27 01:01:04;;;;;;;0.10;0.10;;;16.60;99.90;;;;;;4996399;28;20060;-70
2022/08/27 01:03:30;;;;;;;0.65;0.65;;;16.70;99.90;;;;;;5009147;28;20041;-70
2022/08/27 01:05:58;;;;;;;0.30;0.30;;;16.70;99.90;;;;;;4996922;28;20494;-70
2022/08/27 01:08:28;;;;;;;3.00;0.52;;;16.70;99.90;;;;;;5009832;28;20516;-69
2022/08/27 01:10:57;;;;;;;0.20;0.15;;;16.70;99.90;;;;;;5003237;28;20095;-69
2022/08/27 01:13:28;;;;;;;0.05;0.05;;;16.80;99.90;;;;;;4990459;28;20078;-69
2022/08/27 01:15:57;;;;;;;0.10;0.10;;;16.80;99.90;;;;;;4990808;28;20054;-69
2022/08/27 01:18:25;;;;;;;0.38;0.38;;;16.70;99.90;;;;;;4995123;28;20036;-69
2022/08/27 01:21:04;;;;;;;0.00;0.00;;;16.80;99.90;;;;;;5000844;28;20046;-69
2022/08/27 01:24:00;;;;;;;0.57;0.57;;;16.80;99.90;;;;;;5008284;28;20118;-69
2022/08/27 01:26:27;;;;;;;0.43;0.43;;;16.70;99.90;;;;;;4989247;28;20094;-69
2022/08/27 01:28:52;;;;;;;0.10;0.10;;;16.80;99.90;;;;;;4996763;28;20084;-69
2022/08/27 01:31:18;;;;;;;0.20;0.20;;;16.70;99.90;;;;;;4992926;28;20443;-69
2022/08/27 01:33:57;;;;;;;0.10;0.10;;;16.70;99.90;;;;;;5008590;28;20092;-69
2022/08/27 01:36:23;;;;;;;0.00;0.00;;;16.60;99.90;;;;;;5013261;28;20053;-69
2022/08/27 01:38:49;;;;;;;0.55;0.55;;;16.50;99.90;;;;;;5010679;28;20425;-69
2022/08/27 01:41:15;;;;;;;0.10;0.10;;;16.50;99.90;;;;;;4999618;28;20050;-69
2022/08/27 01:43:40;;;;;;;0.03;0.03;;;16.50;99.90;;;;;;5007617;28;20153;-69
2022/08/27 01:46:06;;;;;;;0.10;0.10;;;16.40;99.90;;;;;;5013103;28;20128;-70
2022/08/27 01:48:31;;;;;;;0.90;0.45;;;16.50;99.90;;;;;;4993319;28;20398;-70
2022/08/27 01:50:57;;;;;;;0.10;0.10;;;16.50;99.90;;;;;;4994371;28;20073;-69
2022/08/27 01:53:25;;;;;;;0.10;0.10;;;16.50;99.90;;;;;;4992986;28;20042;-69
2022/08/27 01:55:51;;;;;;;3.08;0.43;;;16.50;99.90;;;;;;4997533;28;20041;-69
2022/08/27 01:58:20;;;;;;;0.20;0.20;;;16.60;99.90;;;;;;5012037;28;20092;-70
2022/08/27 02:00:50;;;;;;;0.00;0.00;;;16.60;99.90;;;;;;5010794;28;20054;-69
2022/08/27 02:03:17;;;;;;;0.00;0.00;;;16.60;99.90;;;;;;5012638;28;20133;-70
2022/08/27 02:05:44;;;;;;;0.10;0.10;;;16.60;99.90;;;;;;5008867;28;20089;-69
2022/08/27 02:08:10;;;;;;;0.25;0.25;;;16.70;99.90;;;;;;5012687;28;20053;-69
2022/08/27 02:10:38;;;;;;;0.10;0.10;;;16.80;99.90;;;;;;5007865;28;20038;-69
2022/08/27 02:13:05;;;;;;;0.10;0.10;;;16.90;99.90;;;;;;4999041;28;20053;-70
2022/08/27 02:15:33;;;;;;;0.10;0.10;;;16.90;99.90;;;;;;5003425;28;20549;-69
2022/08/27 02:17:59;;;;;;;0.40;0.40;;;17.00;99.90;;;;;;5013396;28;20129;-70
2022/08/27 02:20:25;;;;;;;0.03;0.03;;;17.10;99.90;;;;;;5013033;28;20061;-69
2022/08/27 02:22:52;;;;;;;0.00;0.00;;;17.10;99.90;;;;;;4997879;28;20049;-70
2022/08/27 02:25:19;;;;;;;0.38;0.20;;;17.20;99.90;;;;;;4993633;28;20426;-70
2022/08/27 02:27:45;;;;;;;0.00;0.00;;;17.20;99.90;;;;;;5011321;28;20118;-70
2022/08/27 02:30:13;;;;;;;0.00;0.00;;;17.30;99.90;;;;;;5006061;28;20073;-70
2022/08/27 02:32:39;;;;;;;0.00;0.00;;;17.30;99.90;;;;;;4991916;28;20394;-69
2022/08/27 02:35:06;;;;;;;0.10;0.10;;;17.30;99.90;;;;;;4992800;28;20053;-70
2022/08/27 02:37:32;;;;;;;0.03;0.03;;;17.30;99.90;;;;;;4992654;28;20081;-69
2022/08/27 02:39:57;;;;;;;0.00;0.00;;;17.30;99.90;;;;;;5000124;28;20105;-70
2022/08/27 02:42:23;;;;;;;0.00;0.00;;;17.30;99.90;;;;;;5007848;28;20132;-70
2022/08/27 02:44:49;;;;;;;0.00;0.00;;;17.30;99.90;;;;;;4998066;28;20046;-69
2022/08/27 02:47:15;;;;;;;0.00;0.00;;;17.40;99.90;;;;;;4991414;28;20414;-70
2022/08/27 02:49:41;;;;;;;0.55;0.52;;;17.40;99.90;;;;;;4990413;28;20046;-70
2022/08/27 02:52:07;;;;;;;0.00;0.00;;;17.40;99.90;;;;;;4991749;28;20054;-70
2022/08/27 02:54:33;;;;;;;0.00;0.00;;;17.40;99.90;;;;;;4994787;28;20351;-69
2022/08/27 02:56:58;;;;;;;0.00;0.00;;;17.40;99.90;;;;;;4992403;28;20129;-70
2022/08/27 02:59:24;;;;;;;0.08;0.08;;;17.30;99.90;;;;;;4992690;28;20050;-70
2022/08/27 03:01:50;;;;;;;0.00;0.00;;;17.30;99.90;;;;;;4992964;28;20565;-70
2022/08/27 03:04:18;;;;;;;0.20;0.20;;;17.20;99.90;;;;;;4992143;28;20043;-70
2022/08/27 03:06:45;;;;;;;0.20;0.20;;;17.20;99.90;;;;;;4995410;28;20049;-69
2022/08/27 03:09:11;;;;;;;0.00;0.00;;;17.10;99.90;;;;;;4998858;28;20042;-69
2022/08/27 03:11:36;;;;;;;0.10;0.10;;;17.00;99.90;;;;;;4992124;28;20050;-69
2022/08/27 03:14:02;;;;;;;0.10;0.10;;;16.90;99.90;;;;;;5007402;28;20149;-69
2022/08/27 03:16:28;;;;;;;0.10;0.10;;;16.90;99.90;;;;;;5012301;28;20081;-69
2022/08/27 03:18:54;;;;;;;0.00;0.00;;;16.80;99.90;;;;;;4999103;28;20402;-69
2022/08/27 03:21:23;;;;;;;0.00;0.00;;;16.80;99.90;;;;;;4992490;28;20085;-69
2022/08/27 03:23:49;;;;;;;0.10;0.10;;;16.70;99.90;;;;;;5002595;28;20100;-69
2022/08/27 03:26:16;;;;;;;0.00;0.00;;;16.70;99.90;;;;;;5010055;28;20105;-69
2022/08/27 03:28:42;;;;;;;0.10;0.10;;;16.70;99.90;;;;;;5012130;28;20580;-69
2022/08/27 03:31:14;;;;;;;0.20;0.20;;;16.60;99.90;;;;;;5010374;28;20057;-69
2022/08/27 03:33:41;;;;;;;0.00;0.00;;;16.60;99.90;;;;;;4996270;28;20053;-70
2022/08/27 03:36:08;;;;;;;0.00;0.00;;;16.50;99.90;;;;;;4992753;28;20042;-69
2022/08/27 03:38:34;;;;;;;0.10;0.10;;;16.50;99.90;;;;;;4999876;28;20143;-69
2022/08/27 03:41:01;;;;;;;0.00;0.00;;;16.50;99.90;;;;;;5003288;28;20046;-70
2022/08/27 03:43:28;;;;;;;0.15;0.15;;;16.40;99.90;;;;;;5005551;28;20042;-69
2022/08/27 03:45:54;;;;;;;0.10;0.10;;;16.40;99.90;;;;;;5011926;28;20049;-70
2022/08/27 03:48:19;;;;;;;0.20;0.20;;;16.30;99.90;;;;;;4991210;28;20054;-70
2022/08/27 03:50:47;;;;;;;0.20;0.20;;;16.30;99.90;;;;;;4992841;28;20046;-70
2022/08/27 03:53:15;;;;;;;0.10;0.10;;;16.20;99.90;;;;;;4996274;28;20077;-69
2022/08/27 03:55:41;;;;;;;0.10;0.10;;;16.20;99.90;;;;;;4994857;28;20494;-70
2022/08/27 03:58:10;;;;;;;0.10;0.10;;;16.20;99.90;;;;;;4991779;28;20125;-70
2022/08/27 04:00:37;;;;;;;0.20;0.20;;;16.30;99.90;;;;;;4990872;28;20426;-69
2022/08/27 04:03:04;;;;;;;0.00;0.00;;;16.30;99.90;;;;;;4991628;28;20042;-69
2022/08/27 04:05:31;;;;;;;0.05;0.05;;;16.30;99.90;;;;;;4991901;28;20054;-69
2022/08/27 04:07:56;;;;;;;0.20;0.20;;;16.40;99.90;;;;;;4995674;28;20065;-69
2022/08/27 04:10:22;;;;;;;0.00;0.00;;;16.40;99.90;;;;;;4993536;28;20050;-69
2022/08/27 04:12:48;;;;;;;0.10;0.10;;;16.40;99.90;;;;;;4993918;28;20038;-69
2022/08/27 04:15:13;;;;;;;0.10;0.10;;;16.40;99.90;;;;;;4997014;28;20046;-69
2022/08/27 04:17:40;;;;;;;0.30;0.30;;;16.40;99.90;;;;;;5011551;28;20038;-69
2022/08/27 04:20:07;;;;;;;0.00;0.00;;;16.50;99.90;;;;;;4992790;28;20158;-69
2022/08/27 04:22:33;;;;;;;0.00;0.00;;;16.50;99.90;;;;;;5008601;28;20037;-69
2022/08/27 04:24:59;;;;;;;0.00;0.00;;;16.60;99.90;;;;;;5010823;28;20042;-69
2022/08/27 04:27:26;;;;;;;0.00;0.00;;;16.60;99.90;;;;;;5006314;28;20497;-69
2022/08/27 04:29:59;;;;;;;0.00;0.00;;;16.70;99.90;;;;;;5000102;28;20042;-70
2022/08/27 04:32:26;;;;;;;0.60;0.60;;;16.70;99.90;;;;;;5011049;28;20042;-70
2022/08/27 04:34:53;;;;;;;0.10;0.10;;;16.80;99.90;;;;;;4990817;28;20050;-70
2022/08/27 04:37:19;;;;;;;0.00;0.00;;;16.90;99.90;;;;;;5005770;28;20151;-69
2022/08/27 04:39:45;;;;;;;0.00;0.00;;;16.90;99.90;;;;;;5005850;28;20053;-70
2022/08/27 04:42:10;;;;;;;0.55;0.50;;;16.90;99.90;;;;;;5000043;28;20038;-70
2022/08/27 04:44:36;;;;;;;0.00;0.00;;;17.00;99.90;;;;;;4990797;28;20409;-70
2022/08/27 04:47:03;;;;;;;0.00;0.00;;;17.00;99.90;;;;;;4988670;28;20082;-70
2022/08/27 04:49:30;;;;;;;0.10;0.10;;;17.00;99.90;;;;;;4990249;28;20053;-70
2022/08/27 04:51:56;;;;;;;0.00;0.00;;;17.00;99.90;;;;;;4995762;28;20054;-70
2022/08/27 04:54:22;;;;;;;0.00;0.00;;;17.00;99.90;;;;;;4990754;28;20042;-70
2022/08/27 04:56:48;;;;;;;0.10;0.10;;;17.00;99.90;;;;;;4990541;28;20057;-70
2022/08/27 04:59:13;;;;;;;0.10;0.10;;;17.00;99.90;;;;;;4989724;28;20051;-70
2022/08/27 05:01:40;;;;;;;0.00;0.00;;;17.00;99.90;;;;;;5005563;28;20046;-70
2022/08/27 05:04:06;;;;;;;0.00;0.00;;;17.10;99.90;;;;;;5009638;28;20037;-70
2022/08/27 05:06:33;;;;;;;0.13;0.13;;;17.10;99.90;;;;;;5004033;28;20042;-70
2022/08/27 05:08:59;;;;;;;0.10;0.10;;;17.10;99.90;;;;;;4990339;28;20045;-69
2022/08/27 05:11:30;;;;;;;0.10;0.10;;;17.10;99.90;;;;;;4989688;28;20050;-69
2022/08/27 05:13:57;;;;;;;0.03;0.03;;;17.10;99.90;;;;;;5006993;28;20053;-70
2022/08/27 05:16:23;;;;;;;0.00;0.00;;;17.20;99.90;;;;;;4990631;28;20061;-69
2022/08/27 05:18:51;;;;;;;0.00;0.00;;;17.30;99.90;;;;;;4998243;28;20045;-70
2022/08/27 05:21:26;;;;;;;0.55;0.43;;;17.20;99.90;;;;;;5003419;28;20101;-69
2022/08/27 05:23:53;;;;;;;0.10;0.10;;;17.30;99.90;;;;;;5000484;28;20071;-69
2022/08/27 05:26:19;;;;;;;2.28;0.55;;;17.30;99.90;;;;;;4989121;28;20042;-69
2022/08/27 05:28:45;;;;;;;0.03;0.03;;;17.30;99.90;;;;;;4989241;28;20096;-70
2022/08/27 05:31:13;;;;;;;0.30;0.30;;;17.30;99.90;;;;;;4989007;28;20054;-71
2022/08/27 05:33:40;;;;;;;0.03;0.03;;;17.40;99.90;;;;;;4990370;28;20046;-71
2022/08/27 05:36:07;;;;;;;0.00;0.00;;;17.40;99.90;;;;;;4997904;28;20077;-71
2022/08/27 05:38:35;;;;;;;0.52;0.52;;;17.40;99.90;;;;;;4997958;28;20042;-70
2022/08/27 05:41:07;;;;;;;0.28;0.28;;;17.40;99.90;;;;;;4993551;28;20433;-70
2022/08/27 05:43:34;;;;;;;0.03;0.03;;;17.30;99.90;;;;;;5005678;28;20045;-70
2022/08/27 05:46:04;;;;;;;0.03;0.03;;;17.30;99.90;;;;;;4989277;28;20050;-70
2022/08/27 05:48:30;;;;;;;0.00;0.00;;;17.30;99.90;;;;;;5009903;28;20042;-70
2022/08/27 05:50:55;;;;;;;0.00;0.00;;;17.40;99.90;;;;;;5003002;28;20046;-70
2022/08/27 05:53:21;;;;;;;0.00;0.00;;;17.40;99.90;;;;;;4989232;28;20125;-70
2022/08/27 05:55:47;;;;;;;0.10;0.10;;;17.40;99.90;;;;;;4990562;28;20093;-70
2022/08/27 06:01:18;;;;;;;0.43;0.30;;;17.50;99.90;;;;;;4994933;28;20157;-70
2022/08/27 06:03:45;;;;;;;0.00;0.00;;;17.50;99.90;;;;;;4993346;28;20054;-70
2022/08/27 06:06:11;;;;;;;0.00;0.00;;;17.60;99.90;;;;;;4996488;28;20050;-70
2022/08/27 06:08:37;;;;;;;0.00;0.00;;;17.60;99.90;;;;;;5009701;28;20068;-70
2022/08/27 06:11:05;;;;;;;0.30;0.30;;;17.60;99.90;;;;;;5007813;28;20100;-70
2022/08/27 06:13:33;;;;;;;0.00;0.00;;;17.60;99.90;;;;;;4992522;28;20054;-70
2022/08/27 06:16:12;;;;;;;0.00;0.00;;;17.60;99.90;;;;;;4994606;28;20149;-70
2022/08/27 06:18:38;;;;;;;0.00;0.00;;;17.60;99.90;;;;;;4990342;28;20101;-70
2022/08/27 06:21:05;;;;;;;0.03;0.03;;;17.60;99.90;;;;;;4993713;28;20078;-70
2022/08/27 06:23:32;;;;;;;0.00;0.00;;;17.70;99.90;;;;;;4993666;28;20042;-70
2022/08/27 06:25:58;;;;;;;0.10;0.10;;;17.70;99.90;;;;;;4996895;28;20054;-71
2022/08/27 06:28:28;;;;;;;0.00;0.00;;;17.70;99.90;;;;;;4992909;28;20045;-71
2022/08/27 06:31:08;;;;;;;0.10;0.10;;;17.70;99.90;;;;;;4993532;28;20046;-72
2022/08/27 06:33:34;;;;;;;0.10;0.10;;;17.80;99.90;;;;;;5003255;28;20553;-71
2022/08/27 06:36:01;;;;;;;0.00;0.00;;;17.80;99.90;;;;;;4999673;28;20069;-71
2022/08/27 06:38:28;;;;;;;0.00;0.00;;;17.90;99.90;;;;;;5003542;28;20449;-71
2022/08/27 06:40:55;;;;;;;0.00;0.00;;;18.00;99.90;;;;;;4999788;28;20050;-71
2022/08/27 06:43:21;;;;;;;0.00;0.00;;;18.20;99.90;;;;;;5009851;28;20038;-71
2022/08/27 06:45:47;;;;;;;0.00;0.00;;;18.30;99.90;;;;;;5004476;28;20060;-71
2022/08/27 06:48:13;;;;;;;0.00;0.00;;;18.40;99.90;;;;;;5011689;28;20046;-71
2022/08/27 06:50:40;;;;;;;0.00;0.00;;;18.40;99.90;;;;;;5012939;28;20585;-71
2022/08/27 06:53:06;;;;;;;0.00;0.00;;;18.50;99.90;;;;;;4995569;28;20122;-71
2022/08/27 06:55:32;;;;;;;0.00;0.00;;;18.60;99.90;;;;;;4992132;28;20141;-71
2022/08/27 06:57:57;;;;;;;0.00;0.00;;;18.50;99.90;;;;;;5012697;28;20112;-71
2022/08/27 07:00:24;;;;;;;0.10;0.10;;;18.70;99.90;;;;;;5000679;28;20050;-71
2022/08/27 07:02:50;;;;;;;0.08;0.08;;;18.70;99.90;;;;;;4992721;28;20046;-71
2022/08/27 07:05:16;;;;;;;0.00;0.00;;;18.80;99.90;;;;;;4992869;28;20558;-71
2022/08/27 07:07:41;;;;;;;0.00;0.00;;;18.80;99.90;;;;;;5002099;28;20105;-71
2022/08/27 07:10:07;;;;;;;0.90;0.85;;;18.80;99.90;;;;;;4992311;28;20473;-71
2022/08/27 07:12:33;;;;;;;0.00;0.00;;;18.80;99.90;;;;;;5006271;28;20129;-71
2022/08/27 07:14:58;;;;;;;0.22;0.22;;;18.80;99.90;;;;;;5006352;28;20042;-71
2022/08/27 07:17:24;;;;;;;0.00;0.00;;;18.80;99.90;;;;;;5007331;28;20049;-71
2022/08/27 07:19:49;;;;;;;0.03;0.03;;;18.70;99.90;;;;;;5006805;28;20041;-70
2022/08/27 07:22:15;;;;;;;0.00;0.00;;;18.70;99.90;;;;;;5006169;28;20045;-71
2022/08/27 07:24:41;;;;;;;0.00;0.00;;;18.70;99.90;;;;;;5010437;28;20037;-71
2022/08/27 07:27:08;;;;;;;0.30;0.30;;;18.80;99.90;;;;;;5004799;28;20051;-70
2022/08/27 07:29:33;;;;;;;0.00;0.00;;;18.80;99.90;;;;;;5008376;28;20038;-71
2022/08/27 07:31:59;;;;;;;0.00;0.00;;;18.80;99.90;;;;;;5004128;28;20041;-71
2022/08/27 07:34:25;;;;;;;0.00;0.00;;;18.80;99.90;;;;;;5003323;28;20052;-71
2022/08/27 07:36:50;;;;;;;0.00;0.00;;;18.80;99.90;;;;;;4998626;28;20816;-71
2022/08/27 07:39:16;;;;;;;0.00;0.00;;;18.80;99.90;;;;;;5007190;28;20429;-71
2022/08/27 07:44:26;;;;;;;0.10;0.10;;;18.90;99.90;;;;;;5010219;28;20058;-71
2022/08/27 07:46:57;;;;;;;0.00;0.00;;;19.00;99.90;;;;;;5006885;28;20053;-71
2022/08/27 07:49:26;;;;;;;0.00;0.00;;;19.00;99.90;;;;;;5003909;28;20043;-71
2022/08/27 07:51:51;;;;;;;0.00;0.00;;;19.00;99.90;;;;;;4991850;28;20046;-72
2022/08/27 07:54:17;;;;;;;0.00;0.00;;;18.90;99.90;;;;;;4991154;28;20169;-72
2022/08/27 07:56:43;;;;;;;0.00;0.00;;;18.90;99.90;;;;;;4992202;28;20057;-71
2022/08/27 07:59:09;;;;;;;0.00;0.00;;;18.90;99.90;;;;;;4990130;28;20058;-71
2022/08/27 08:01:35;;;;;;;0.00;0.00;;;18.90;99.90;;;;;;4991339;28;20030;-72
2022/08/27 08:04:01;;;;;;;0.25;0.25;;;18.90;99.90;;;;;;4992462;28;20121;-71
2022/08/27 08:06:27;;;;;;;0.00;0.00;;;18.90;99.90;;;;;;5010402;28;20139;-71
2022/08/27 08:08:53;;;;;;;0.00;0.00;;;19.00;99.90;;;;;;5001028;28;20097;-71
2022/08/27 08:11:19;;;;;;;0.00;0.00;;;19.00;99.90;;;;;;5002409;28;20057;-71
2022/08/27 08:13:46;;;;;;;0.10;0.10;;;19.10;99.90;;;;;;4995203;28;20057;-71
2022/08/27 08:16:12;;;;;;;0.17;0.17;;;19.20;99.90;;;;;;4991735;28;20046;-71
2022/08/27 08:18:38;;;;;;;0.00;0.00;;;19.40;99.90;;;;;;4996341;28;20049;-71
2022/08/27 08:21:07;;;;;;;0.00;0.00;;;19.60;99.90;;;;;;5007272;28;20046;-71
2022/08/27 08:23:33;;;;;;;0.00;0.00;;;19.60;99.90;;;;;;5006887;28;20043;-71
2022/08/27 08:25:59;;;;;;;0.13;0.13;;;19.60;99.90;;;;;;4989623;28;20054;-71
2022/08/27 08:28:27;;;;;;;0.00;0.00;;;19.60;99.90;;;;;;4990713;28;20042;-71
2022/08/27 08:30:53;;;;;;;0.00;0.00;;;19.50;99.90;;;;;;4995617;28;20042;-71
2022/08/27 08:33:19;;;;;;;0.15;0.15;;;19.40;99.90;;;;;;4998931;28;20050;-71
2022/08/27 08:35:45;;;;;;;0.00;0.00;;;19.40;99.90;;;;;;5008611;28;20128;-71
2022/08/27 08:38:10;;;;;;;0.05;0.05;;;19.50;99.90;;;;;;5010820;28;20145;-71
2022/08/27 08:40:41;;;;;;;0.00;0.00;;;19.50;99.90;;;;;;5007438;28;20431;-71
2022/08/27 08:43:18;;;;;;;0.57;0.57;;;19.50;99.90;;;;;;5002872;28;20078;-71
2022/08/27 08:45:44;;;;;;;0.00;0.00;;;19.60;99.90;;;;;;4991019;28;20091;-72
2022/08/27 08:48:18;;;;;;;0.10;0.10;;;19.60;99.90;;;;;;4998425;28;20077;-72
2022/08/27 08:51:00;;;;;;;;;;;19.70;99.90;;;;;;4996644;28;20057;-72
2022/08/27 08:53:51;;;;;;;0.00;0.00;;;19.90;99.90;;;;;;4993960;28;20281;-72
2022/08/27 08:56:42;;;;;;;0.00;0.00;;;20.00;99.90;;;;;;5002422;28;20121;-72
2022/08/27 08:59:28;;;;;;;0.00;0.00;;;20.10;99.90;;;;;;4984064;28;20501;-72
2022/08/27 09:01:54;;;;;;;0.00;0.00;;;20.20;99.90;;;;;;5005852;28;20050;-72
2022/08/27 09:04:21;;;;;;;0.00;0.00;;;20.30;99.90;;;;;;5010466;28;20103;-72
2022/08/27 09:07:11;;;;;;;0.10;0.10;;;20.50;99.90;;;;;;4994534;28;20069;-72
2022/08/27 09:09:49;;;;;;;0.10;0.10;;;21.30;99.90;;;;;;4989957;28;20569;-71
2022/08/27 09:12:24;;;;;;;1.35;0.98;;;22.20;99.90;;;;;;5006398;28;20050;-71
2022/08/27 09:14:58;;;;;;;0.00;0.00;;;22.00;99.90;;;;;;5009370;28;20052;-71
2022/08/27 09:17:24;;;;;;;0.00;0.00;;;21.70;99.90;;;;;;5009307;28;20042;-71
2022/08/27 09:19:49;;;;;;;0.15;0.15;;;21.30;99.90;;;;;;5010748;28;20096;-71
2022/08/27 09:22:23;;;;;;;0.00;0.00;;;21.10;99.90;;;;;;5007735;28;20441;-70
2022/08/27 09:25:10;;;;;;;0.63;0.55;;;21.10;99.90;;;;;;5002678;28;20402;-70
2022/08/27 09:27:40;;;;;;;0.00;0.00;;;22.00;99.90;;;;;;4990245;28;20557;-70
2022/08/27 09:30:13;;;;;;;0.00;0.00;;;22.00;99.90;;;;;;5003827;28;20041;-71
2022/08/27 09:32:38;;;;;;;0.28;0.28;;;21.80;99.90;;;;;;5005356;28;20125;-71
2022/08/27 09:35:10;;;;;;;0.00;0.00;;;21.50;99.90;;;;;;4990500;28;20130;-71
2022/08/27 09:37:42;;;;;;;0.00;0.00;;;22.00;99.90;;;;;;4989798;28;20057;-71
2022/08/27 09:40:18;;;;;;;0.00;0.00;;;22.60;99.90;;;;;;4995305;28;20038;-71
2022/08/27 09:42:47;;;;;;;0.00;0.00;;;22.40;99.90;;;;;;5008959;28;20053;-71
2022/08/27 09:45:16;;;;;;;0.00;0.00;;;22.40;99.90;;;;;;5004080;28;20084;-71
2022/08/27 09:47:44;;;;;;;0.30;0.30;;;22.60;99.90;;;;;;4990191;28;20046;-71
2022/08/27 09:50:10;;;;;;;0.00;0.00;;;22.70;99.90;;;;;;4990345;28;20097;-71
2022/08/27 09:52:55;;;;;;;0.00;0.00;;;22.90;99.90;;;;;;4994857;28;20506;-70
2022/08/27 09:55:42;;;;;;;12.98;1.45;;;22.40;99.90;;;;;;4992497;28;20375;-70
2022/08/27 09:58:18;;;;;;;0.10;0.10;;;22.00;99.90;;;;;;4999396;28;20049;-71
2022/08/27 10:00:44;;;;;;;0.10;0.10;;;21.70;99.90;;;;;;4992347;28;20577;-70
2022/08/27 10:03:10;;;;;;;0.20;0.20;;;21.70;99.90;;;;;;4993958;28;20394;-70
2022/08/27 10:05:42;;;;;;;0.00;0.00;;;22.40;99.90;;;;;;4992842;28;20061;-70
2022/08/27 10:08:19;;;;;;;0.03;0.03;;;22.80;99.90;;;;;;4993619;28;20050;-70
2022/08/27 10:10:56;;;;;;;0.08;0.08;;;22.60;99.90;;;;;;4992053;28;20479;-70
2022/08/27 10:13:33;;;;;;;0.00;0.00;;;22.20;99.90;;;;;;4993021;28;20082;-70
2022/08/27 10:16:17;;;;;;;0.00;0.00;;;22.20;99.90;;;;;;4993068;28;20068;-70
2022/08/27 10:19:10;;;;;;;0.00;0.00;;;21.90;99.90;;;;;;4993870;28;20061;-70
2022/08/27 10:22:14;;;;;;;1.33;0.40;;;21.60;99.90;;;;;;4991313;28;20099;-70
2022/08/27 10:25:11;;;;;;;0.30;0.22;;;21.60;99.90;;;;;;4993704;28;20050;-70
2022/08/27 10:27:48;;;;;;;0.00;0.00;;;21.60;99.90;;;;;;5004787;28;20058;-70
2022/08/27 10:30:18;;;;;;;0.32;0.32;;;21.50;99.90;;;;;;5009998;28;20053;-70
2022/08/27 10:33:05;;;;;;;0.00;0.00;;;21.40;99.90;;;;;;4996944;28;20060;-70
2022/08/27 10:36:04;;;;;;;0.30;0.30;;;21.30;99.90;;;;;;4992889;28;20490;-70
2022/08/27 10:39:00;;;;;;;0.08;0.08;;;21.40;99.90;;;;;;4994871;28;20045;-70
2022/08/27 10:41:34;;;;;;;0.57;0.30;;;21.60;99.90;;;;;;4997040;28;20093;-70
2022/08/27 10:44:13;;;;;;;0.00;0.00;;;21.70;99.90;;;;;;4993338;28;20132;-70
2022/08/27 10:46:51;;;;;;;0.00;0.00;;;21.80;99.90;;;;;;5000430;28;20061;-70
2022/08/27 10:49:37;;;;;;;0.00;0.00;;;21.80;99.90;;;;;;4992627;28;20074;-70
2022/08/27 10:52:20;;;;;;;0.73;0.65;;;21.70;99.90;;;;;;5010766;28;20470;-70
2022/08/27 10:54:53;;;;;;;0.10;0.10;;;21.80;99.90;;;;;;5007133;28;20042;-70
2022/08/27 10:57:32;;;;;;;0.00;0.00;;;21.70;99.90;;;;;;5001737;28;20057;-70
2022/08/27 11:00:12;;;;;;;0.15;0.15;;;21.50;99.90;;;;;;4999121;28;20054;-70
2022/08/27 11:02:53;;;;;;;0.45;0.45;;;21.40;99.90;;;;;;5004041;28;20053;-70
2022/08/27 11:05:21;;;;;;;0.00;0.00;;;21.60;99.90;;;;;;5012599;28;20037;-70
2022/08/27 11:08:04;;;;;;;0.00;0.00;;;21.70;99.90;;;;;;5011669;28;20128;-70
2022/08/27 11:10:34;;;;;;;0.00;0.00;;;22.20;99.90;;;;;;4999082;28;20482;-70
2022/08/27 11:13:09;;;;;;;0.00;0.00;;;22.50;99.90;;;;;;4992736;28;20054;-70
2022/08/27 11:15:37;;;;;;;0.00;0.00;;;23.10;99.90;;;;;;5002086;28;20478;-70
2022/08/27 11:18:14;;;;;;;0.00;0.00;;;23.50;99.90;;;;;;5009317;28;20061;-70
2022/08/27 11:21:00;;;;;;;0.00;0.00;;;23.60;99.90;;;;;;5009345;28;20038;-69
2022/08/27 11:23:53;;;;;;;0.00;0.00;;;23.40;99.90;;;;;;5006391;28;20092;-69
2022/08/27 11:26:19;;;;;;;0.00;0.00;;;23.60;99.90;;;;;;5009115;28;20057;-70
2022/08/27 11:28:58;;;;;;;0.20;0.20;;;23.90;99.90;;;;;;4995138;28;20046;-70
2022/08/27 11:31:48;;;;;;;0.00;0.00;;;23.90;99.90;;;;;;4992192;28;20050;-70
2022/08/27 11:34:33;;;;;;;0.00;0.00;;;24.00;99.60;;;;;;4992461;28;20053;-69
2022/08/27 11:37:20;;;;;;;0.00;0.00;;;24.10;98.70;;;;;;5010281;28;20060;-70
2022/08/27 11:40:24;;;;;;;0.63;0.35;;;24.50;99.30;;;;;;5012225;28;20050;-70
2022/08/27 11:42:53;;;;;;;0.00;0.00;;;24.90;99.30;;;;;;5011867;28;20054;-69
2022/08/27 11:45:33;;;;;;;0.00;0.00;;;25.10;99.90;;;;;;4992137;28;20055;-69
2022/08/27 11:48:01;;;;;;;0.00;0.00;;;25.30;98.30;;;;;;4997689;28;20096;-69
2022/08/27 11:50:29;;;;;;;0.00;0.00;;;25.50;98.50;;;;;;5010443;28;20057;-69
2022/08/27 11:53:02;;;;;;;0.00;0.00;;;25.60;98.60;;;;;;4992060;28;20049;-69
2022/08/27 11:55:34;;;;;;;0.00;0.00;;;25.60;97.30;;;;;;4994625;28;20056;-69
2022/08/27 11:58:12;;;;;;;0.00;0.00;;;25.60;97.20;;;;;;4995939;28;20039;-69
2022/08/27 12:00:40;;;;;;;0.10;0.10;;;25.80;96.60;;;;;;4991960;28;20477;-70
2022/08/27 12:03:18;;;;;;;0.00;0.00;;;26.20;97.00;;;;;;5008854;28;20049;-69
2022/08/27 12:05:53;;;;;;;0.00;0.00;;;25.70;96.60;;;;;;5011090;28;20077;-69
2022/08/27 12:08:21;;;;;;;0.00;0.00;;;24.70;96.20;;;;;;4996363;28;20088;-69
2022/08/27 12:10:56;;;;;;;0.00;0.00;;;25.00;97.40;;;;;;4991948;28;20047;-70
2022/08/27 12:13:38;;;;;;;0.00;0.00;;;25.60;97.10;;;;;;4989554;28;20065;-69
2022/08/27 12:16:19;;;;;;;0.00;0.00;;;24.90;96.60;;;;;;4991392;28;20486;-70
2022/08/27 12:19:01;;;;;;;0.00;0.00;;;24.50;98.10;;;;;;4989806;28;20565;-69
2022/08/27 12:22:02;;;;;;;0.00;0.00;;;24.20;98.50;;;;;;4991519;28;20050;-69
2022/08/27 12:24:52;;;;;;;0.00;0.00;;;23.90;98.10;;;;;;4973126;28;20121;-69
2022/08/27 12:27:23;;;;;;;0.10;0.10;;;23.70;97.50;;;;;;4995346;28;20042;-69
2022/08/27 12:30:30;;;;;;;3.17;0.35;;;24.10;98.90;;;;;;4990239;28;20078;-70
2022/08/27 12:32:58;;;;;;;0.03;0.03;;;25.00;97.50;;;;;;4968999;28;20134;-70
2022/08/27 12:35:46;;;;;;;0.03;0.03;;;24.80;97.90;;;;;;4970494;28;20046;-70
2022/08/27 12:38:33;;;;;;;0.00;0.00;;;24.60;98.10;;;;;;4982905;28;20510;-70
2022/08/27 12:41:04;;;;;;;0.35;0.08;;;24.50;98.30;;;;;;5003881;28;20052;-69
2022/08/27 12:43:33;;;;;;;3.25;0.38;;;24.80;98.10;;;;;;4995657;28;20049;-70
2022/08/27 12:46:10;;;;;;;0.00;0.00;;;24.90;99.40;;;;;;4990184;28;20410;-70
2022/08/27 12:48:44;;;;;;;0.20;0.20;;;25.40;97.70;;;;;;4990073;28;20641;-69
2022/08/27 12:51:31;;;;;;;0.00;0.00;;;25.60;97.70;;;;;;4989640;28;20038;-69
2022/08/27 12:54:19;;;;;;;0.00;0.00;;;26.10;97.80;;;;;;4990631;28;20125;-70
2022/08/27 12:57:04;;;;;;;0.10;0.10;;;26.30;98.00;;;;;;4993570;28;20057;-70
2022/08/27 12:59:41;;;;;;;0.00;0.00;;;26.60;96.90;;;;;;4989975;28;20121;-69
2022/08/27 13:02:33;;;;;;;0.00;0.00;;;26.60;96.80;;;;;;5002235;28;20086;-69
2022/08/27 13:05:04;;;;;;;0.20;0.20;;;26.10;96.20;;;;;;4989686;28;20498;-69
2022/08/27 13:07:37;;;;;;;0.82;0.80;;;25.10;96.20;;;;;;4990914;28;20034;-69
2022/08/27 13:10:11;;;;;;;0.22;0.22;;;25.20;96.40;;;;;;4988886;28;20112;-70
2022/08/27 13:12:37;;;;;;;0.10;0.10;;;25.80;96.70;;;;;;4989787;28;20054;-69